createdAt,value
2018-02-10T00:01:46.552Z,-1.00
2018-02-10T00:04:14.081Z,-1.00
2018-02-10T00:06:41.630Z,-1.00
2018-02-10T00:09:09.168Z,-1.00
2018-02-10T00:11:36.707Z,-1.00
2018-02-10T00:14:04.245Z,-1.00
2018-02-10T00:16:31.796Z,-1.00
2018-02-10T00:18:59.321Z,-1.00
2018-02-10T00:21:26.872Z,-1.00
2018-02-10T00:23:55.184Z,-1.00
2018-02-10T00:26:22.727Z,-1.10
2018-02-10T00:28:50.255Z,-1.10
2018-02-10T00:31:17.837Z,-1.10
2018-02-10T00:33:45.371Z,-1.10
2018-02-10T00:36:12.909Z,-1.10
2018-02-10T00:38:40.460Z,-1.10
2018-02-10T00:41:08.237Z,-1.10
2018-02-10T00:43:35.792Z,-1.10
2018-02-10T00:46:03.320Z,-1.10
2018-02-10T00:48:30.877Z,-1.10
2018-02-10T00:50:58.400Z,-1.20
2018-02-10T00:53:26.729Z,-1.20
2018-02-10T00:55:54.281Z,-1.20
2018-02-10T00:58:21.832Z,-1.10
2018-02-10T01:00:49.390Z,-1.10
2018-02-10T01:03:16.949Z,-1.10
2018-02-10T01:05:44.489Z,-1.10
2018-02-10T01:08:12.056Z,-1.10
2018-02-10T01:10:39.589Z,-1.10
2018-02-10T01:13:07.908Z,-1.10
2018-02-10T01:15:35.445Z,-1.10
2018-02-10T01:18:03.004Z,-1.10
2018-02-10T01:20:30.541Z,-1.10
2018-02-10T01:22:58.113Z,-1.00
2018-02-10T01:25:25.648Z,-1.00
2018-02-10T01:27:53.936Z,-1.00
2018-02-10T01:30:21.503Z,-1.00
2018-02-10T01:32:49.055Z,-1.00
2018-02-10T01:35:16.617Z,-1.00
2018-02-10T01:37:44.148Z,-1.00
2018-02-10T01:40:12.477Z,-1.00
2018-02-10T01:42:40.008Z,-1.00
2018-02-10T01:45:07.573Z,-1.00
2018-02-10T01:47:35.101Z,-1.00
2018-02-10T01:50:14.438Z,-1.00
2018-02-10T01:52:42.754Z,-1.00
2018-02-10T01:55:10.306Z,-1.10
2018-02-10T01:57:37.844Z,-1.00
2018-02-10T02:00:06.228Z,-1.10
2018-02-10T02:02:33.769Z,-1.10
2018-02-10T02:05:01.336Z,-1.10
2018-02-10T02:07:29.633Z,-1.10
2018-02-10T02:09:57.204Z,-1.10
2018-02-10T02:12:25.516Z,-1.10
2018-02-10T02:14:53.065Z,-1.10
2018-02-10T02:17:20.604Z,-1.10
2018-02-10T02:19:48.161Z,-1.10
2018-02-10T02:22:15.700Z,-1.10
2018-02-10T02:24:43.290Z,-1.10
2018-02-10T02:27:10.817Z,-1.10
2018-02-10T02:29:38.378Z,-1.10
2018-02-10T02:32:05.933Z,-1.10
2018-02-10T02:34:33.461Z,-1.10
2018-02-10T02:37:01.798Z,-1.10
2018-02-10T02:39:29.329Z,-1.10
2018-02-10T02:41:56.901Z,-1.10
2018-02-10T02:44:24.441Z,-1.10
2018-02-10T02:46:51.999Z,-1.10
2018-02-10T02:49:19.533Z,-1.10
2018-02-10T02:51:47.853Z,-1.10
2018-02-10T02:54:15.416Z,-1.20
2018-02-10T02:56:42.983Z,-1.10
2018-02-10T02:59:10.518Z,-1.20
2018-02-10T03:01:38.096Z,-1.20
2018-02-10T03:04:05.638Z,-1.20
2018-02-10T03:06:33.196Z,-1.20
2018-02-10T03:09:00.735Z,-1.20
2018-02-10T03:11:29.060Z,-1.20
2018-02-10T03:13:56.588Z,-1.30
2018-02-10T03:16:24.137Z,-1.20
2018-02-10T03:18:51.668Z,-1.30
2018-02-10T03:21:19.223Z,-1.30
2018-02-10T03:23:46.764Z,-1.30
2018-02-10T03:26:14.308Z,-1.30
2018-02-10T03:28:41.845Z,-1.30
2018-02-10T03:31:09.407Z,-1.30
2018-02-10T03:33:36.944Z,-1.30
2018-02-10T03:36:04.501Z,-1.30
2018-02-10T03:38:32.030Z,-1.30
2018-02-10T03:40:59.940Z,-1.30
2018-02-10T03:43:27.476Z,-1.30
2018-02-10T03:45:55.801Z,-1.40
2018-02-10T03:48:23.332Z,-1.40
2018-02-10T03:50:50.906Z,-1.40
2018-02-10T03:53:18.435Z,-1.30
2018-02-10T03:55:45.963Z,-1.30
2018-02-10T03:58:13.528Z,-1.30
2018-02-10T04:00:41.070Z,-1.30
2018-02-10T04:03:08.633Z,-1.30
2018-02-10T04:05:36.179Z,-1.30
2018-02-10T04:08:03.738Z,-1.30
2018-02-10T04:10:31.265Z,-1.30
2018-02-10T04:12:58.808Z,-1.30
2018-02-10T04:15:26.389Z,-1.30
2018-02-10T04:17:53.941Z,-1.30
2018-02-10T04:20:21.473Z,-1.30
2018-02-10T04:22:49.814Z,-1.20
2018-02-10T04:25:17.348Z,-1.30
2018-02-10T04:27:44.904Z,-1.20
2018-02-10T04:30:12.427Z,-1.20
2018-02-10T04:32:40.738Z,-1.20
2018-02-10T04:35:08.276Z,-1.30
2018-02-10T04:37:35.848Z,-1.30
2018-02-10T04:40:03.385Z,-1.30
2018-02-10T04:42:30.935Z,-1.30
2018-02-10T04:44:59.227Z,-1.30
2018-02-10T04:47:26.792Z,-1.30
2018-02-10T04:49:54.325Z,-1.30
2018-02-10T04:52:22.649Z,-1.30
2018-02-10T04:54:50.188Z,-1.30
2018-02-10T04:57:17.747Z,-1.30
2018-02-10T04:59:45.272Z,-1.20
2018-02-10T05:02:13.593Z,-1.20
2018-02-10T05:04:41.136Z,-1.30
2018-02-10T05:07:08.682Z,-1.30
2018-02-10T05:09:36.225Z,-1.30
2018-02-10T05:12:04.560Z,-1.30
2018-02-10T05:14:32.088Z,-1.30
2018-02-10T05:16:59.650Z,-1.30
2018-02-10T05:19:27.200Z,-1.30
2018-02-10T05:21:54.752Z,-1.20
2018-02-10T05:24:22.284Z,-1.30
2018-02-10T05:26:50.607Z,-1.30
2018-02-10T05:29:18.138Z,-1.30
2018-02-10T05:31:46.524Z,-1.30
2018-02-10T05:34:14.064Z,-1.30
2018-02-10T05:36:42.376Z,-1.30
2018-02-10T05:39:10.673Z,-1.30
2018-02-10T05:41:38.225Z,-1.30
2018-02-10T05:44:05.756Z,-1.30
2018-02-10T05:46:33.295Z,-1.30
2018-02-10T05:49:05.746Z,-1.30
2018-02-10T05:51:34.366Z,-1.30
2018-02-10T05:54:01.941Z,-1.30
2018-02-10T05:56:29.481Z,-1.30
2018-02-10T05:58:57.043Z,-1.30
2018-02-10T06:01:24.577Z,-1.30
2018-02-10T06:03:52.914Z,-1.30
2018-02-10T06:06:20.448Z,-1.30
2018-02-10T06:08:48.772Z,-1.30
2018-02-10T06:11:16.308Z,-1.30
2018-02-10T06:13:43.872Z,-1.30
2018-02-10T06:16:11.418Z,-1.30
2018-02-10T06:18:38.968Z,-1.30
2018-02-10T06:21:06.502Z,-1.30
2018-02-10T06:23:34.048Z,-1.20
2018-02-10T06:26:02.345Z,-1.20
2018-02-10T06:28:29.905Z,-1.30
2018-02-10T06:30:57.460Z,-1.20
2018-02-10T06:33:25.013Z,-1.20
2018-02-10T06:35:52.536Z,-1.30
2018-02-10T06:38:20.085Z,-1.20
2018-02-10T06:40:47.617Z,-1.20
2018-02-10T06:43:15.173Z,-1.20
2018-02-10T06:45:42.710Z,-1.20
2018-02-10T06:48:10.269Z,-1.20
2018-02-10T06:50:37.818Z,-1.20
2018-02-10T06:53:05.361Z,-1.20
2018-02-10T06:55:33.683Z,-1.20
2018-02-10T06:58:01.246Z,-1.20
2018-02-10T07:00:28.780Z,-1.20
2018-02-10T07:02:56.348Z,-1.20
2018-02-10T07:05:23.876Z,-1.10
2018-02-10T07:07:52.241Z,-1.10
2018-02-10T07:10:19.768Z,-1.10
2018-02-10T07:12:47.305Z,-1.00
2018-02-10T07:15:14.867Z,-1.00
2018-02-10T07:17:42.397Z,-1.00
2018-02-10T07:20:09.981Z,-1.00
2018-02-10T07:22:37.520Z,-1.00
2018-02-10T07:25:05.078Z,-0.60
2018-02-10T07:27:32.604Z,-0.90
2018-02-10T07:30:00.170Z,-0.80
2018-02-10T07:32:28.477Z,-0.70
2018-02-10T07:34:56.040Z,-0.70
2018-02-10T07:37:23.576Z,-0.70
2018-02-10T07:39:51.881Z,-0.70
2018-02-10T07:42:19.405Z,-0.70
2018-02-10T07:44:47.717Z,-0.60
2018-02-10T07:47:15.235Z,-0.60
2018-02-10T07:49:51.694Z,-0.50
2018-02-10T07:52:19.240Z,-0.50
2018-02-10T07:54:47.584Z,-0.40
2018-02-10T07:57:15.103Z,-0.40
2018-02-10T07:59:43.420Z,-0.20
2018-02-10T08:02:10.932Z,-0.20
2018-02-10T08:04:39.292Z,-0.10
2018-02-10T08:07:06.812Z,-0.10
2018-02-10T08:09:34.329Z,0.00
2018-02-10T08:12:02.646Z,0.10
2018-02-10T08:14:30.175Z,0.10
2018-02-10T08:16:57.717Z,0.10
2018-02-10T08:19:26.001Z,0.10
2018-02-10T08:21:54.300Z,0.20
2018-02-10T08:24:21.809Z,0.20
2018-02-10T08:26:49.349Z,0.30
2018-02-10T08:29:16.873Z,0.30
2018-02-10T08:31:44.424Z,0.40
2018-02-10T08:34:11.944Z,0.40
2018-02-10T08:36:39.505Z,0.50
2018-02-10T08:39:07.031Z,0.60
2018-02-10T08:41:34.574Z,0.60
2018-02-10T08:44:02.088Z,0.70
2018-02-10T08:46:30.403Z,0.80
2018-02-10T08:48:57.928Z,0.80
2018-02-10T08:51:26.242Z,0.80
2018-02-10T08:53:53.766Z,0.80
2018-02-10T08:56:22.080Z,0.90
2018-02-10T08:58:49.615Z,0.80
2018-02-10T09:01:17.182Z,0.90
2018-02-10T09:03:44.706Z,0.90
2018-02-10T09:06:12.988Z,0.90
2018-02-10T09:08:41.304Z,1.00
2018-02-10T09:11:08.844Z,1.00
2018-02-10T09:13:36.386Z,1.10
2018-02-10T09:16:04.681Z,1.00
2018-02-10T09:18:32.228Z,1.00
2018-02-10T09:20:59.813Z,1.20
2018-02-10T09:23:27.369Z,1.20
2018-02-10T09:25:54.986Z,1.40
2018-02-10T09:28:22.502Z,1.50
2018-02-10T09:30:50.034Z,1.60
2018-02-10T09:33:17.590Z,1.40
2018-02-10T09:35:45.124Z,1.50
2018-02-10T09:38:13.438Z,1.80
2018-02-10T09:40:40.977Z,1.80
2018-02-10T09:43:08.535Z,2.00
2018-02-10T09:45:36.052Z,2.10
2018-02-10T09:48:03.593Z,2.20
2018-02-10T09:50:31.118Z,2.30
2018-02-10T09:52:58.668Z,2.30
2018-02-10T09:55:26.192Z,2.20
2018-02-10T09:57:53.745Z,2.40
2018-02-10T10:00:21.269Z,2.30
2018-02-10T10:02:48.784Z,2.30
2018-02-10T10:05:17.093Z,2.30
2018-02-10T10:07:44.618Z,2.40
2018-02-10T10:10:12.934Z,2.40
2018-02-10T10:12:40.453Z,2.30
2018-02-10T10:15:08.766Z,2.20
2018-02-10T10:17:36.312Z,2.20
2018-02-10T10:20:08.880Z,2.20
2018-02-10T10:22:36.404Z,2.30
2018-02-10T10:25:03.957Z,2.10
2018-02-10T10:27:31.488Z,1.80
2018-02-10T10:29:59.037Z,1.90
2018-02-10T10:32:26.556Z,2.00
2018-02-10T10:34:54.880Z,2.30
2018-02-10T10:37:22.434Z,2.20
2018-02-10T10:39:49.988Z,2.20
2018-02-10T10:42:17.539Z,2.40
2018-02-10T10:44:45.097Z,2.40
2018-02-10T10:47:12.617Z,2.30
2018-02-10T10:49:40.966Z,2.10
2018-02-10T10:52:08.493Z,2.00
2018-02-10T10:54:36.036Z,1.80
2018-02-10T10:57:03.601Z,2.00
2018-02-10T10:59:31.177Z,1.90
2018-02-10T11:01:58.716Z,1.90
2018-02-10T11:04:26.240Z,2.00
2018-02-10T11:06:53.786Z,2.00
2018-02-10T11:09:21.506Z,1.90
2018-02-10T11:11:49.087Z,1.90
2018-02-10T11:14:16.618Z,2.00
2018-02-10T11:16:44.165Z,2.20
2018-02-10T11:19:11.693Z,2.30
2018-02-10T11:21:40.005Z,2.00
2018-02-10T11:24:07.524Z,2.00
2018-02-10T11:26:35.107Z,2.00
2018-02-10T11:29:02.636Z,2.10
2018-02-10T11:31:32.881Z,2.10
2018-02-10T11:34:01.170Z,2.00
2018-02-10T11:36:28.741Z,2.00
2018-02-10T11:38:56.279Z,2.00
2018-02-10T11:41:23.829Z,1.90
2018-02-10T11:43:51.424Z,1.90
2018-02-10T11:46:18.996Z,1.80
2018-02-10T11:48:46.525Z,1.80
2018-02-10T11:51:14.086Z,1.80
2018-02-10T11:53:41.624Z,1.80
2018-02-10T11:56:09.936Z,1.80
2018-02-10T11:58:37.466Z,1.80
2018-02-10T12:01:05.014Z,1.80
2018-02-10T12:03:33.386Z,1.90
2018-02-10T12:06:01.702Z,1.80
2018-02-10T12:08:29.257Z,1.80
2018-02-10T12:10:56.821Z,1.70
2018-02-10T12:13:24.360Z,1.90
2018-02-10T12:15:51.888Z,1.80
2018-02-10T12:18:19.456Z,1.90
2018-02-10T12:20:47.793Z,1.80
2018-02-10T12:23:15.341Z,1.80
2018-02-10T12:25:42.870Z,1.80
2018-02-10T12:28:10.449Z,1.70
2018-02-10T12:30:37.974Z,1.70
2018-02-10T12:33:06.292Z,1.80
2018-02-10T12:35:33.813Z,1.80
2018-02-10T12:38:01.357Z,1.80
2018-02-10T12:40:29.646Z,1.70
2018-02-10T12:42:57.971Z,1.80
2018-02-10T12:45:25.504Z,1.80
2018-02-10T12:48:05.332Z,1.90
2018-02-10T12:50:32.864Z,1.90
2018-02-10T12:53:00.421Z,1.80
2018-02-10T12:55:27.949Z,1.70
2018-02-10T12:57:55.508Z,1.70
2018-02-10T13:00:23.029Z,1.70
2018-02-10T13:02:50.589Z,1.60
2018-02-10T13:05:18.120Z,1.70
2018-02-10T13:07:46.437Z,1.50
2018-02-10T13:10:13.974Z,1.50
2018-02-10T13:12:41.532Z,1.60
2018-02-10T13:15:09.068Z,1.60
2018-02-10T13:17:37.388Z,1.50
2018-02-10T13:20:04.921Z,1.40
2018-02-10T13:22:32.489Z,1.30
2018-02-10T13:25:00.629Z,1.30
2018-02-10T13:27:28.230Z,1.10
2018-02-10T13:29:55.764Z,1.30
2018-02-10T13:32:23.321Z,1.20
2018-02-10T13:34:51.626Z,1.20
2018-02-10T13:37:19.933Z,1.20
2018-02-10T13:39:47.461Z,1.20
2018-02-10T13:42:15.010Z,1.30
2018-02-10T13:44:42.544Z,1.40
2018-02-10T13:47:10.832Z,1.60
2018-02-10T13:49:38.371Z,1.60
2018-02-10T13:52:13.254Z,1.80
2018-02-10T13:54:43.536Z,1.70
2018-02-10T13:57:11.828Z,1.80
2018-02-10T13:59:39.377Z,1.70
2018-02-10T14:02:06.928Z,1.80
2018-02-10T14:04:36.105Z,1.70
2018-02-10T14:07:03.648Z,1.70
2018-02-10T14:09:31.202Z,1.80
2018-02-10T14:11:58.760Z,1.80
2018-02-10T14:14:26.312Z,1.60
2018-02-10T14:16:54.621Z,1.10
2018-02-10T14:19:22.956Z,1.60
2018-02-10T14:21:50.524Z,1.50
2018-02-10T14:24:18.078Z,1.70
2018-02-10T14:26:45.600Z,1.70
2018-02-10T14:29:13.149Z,1.70
2018-02-10T14:31:41.437Z,1.60
2018-02-10T14:34:08.973Z,1.60
2018-02-10T14:36:37.270Z,1.70
2018-02-10T14:39:04.824Z,1.70
2018-02-10T14:41:32.356Z,1.80
2018-02-10T14:44:00.681Z,1.80
2018-02-10T14:46:28.209Z,1.80
2018-02-10T14:48:55.760Z,1.70
2018-02-10T14:51:26.192Z,1.70
2018-02-10T14:53:54.502Z,1.70
2018-02-10T14:56:22.028Z,1.70
2018-02-10T14:58:49.580Z,1.60
2018-02-10T15:01:17.877Z,1.50
2018-02-10T15:03:46.579Z,1.50
2018-02-10T15:06:14.135Z,1.50
2018-02-10T15:08:42.461Z,1.40
2018-02-10T15:11:09.980Z,1.40
2018-02-10T15:13:39.531Z,1.30
2018-02-10T15:16:07.055Z,1.30
2018-02-10T15:18:34.606Z,1.30
2018-02-10T15:21:02.129Z,1.30
2018-02-10T15:23:29.845Z,1.30
2018-02-10T15:25:57.383Z,1.30
2018-02-10T15:28:24.941Z,1.30
2018-02-10T15:31:08.053Z,1.30
2018-02-10T15:33:47.396Z,1.30
2018-02-10T15:36:14.927Z,1.20
2018-02-10T15:38:42.489Z,1.20
2018-02-10T15:41:16.223Z,1.20
2018-02-10T15:43:43.790Z,1.20
2018-02-10T15:46:11.343Z,1.20
2018-02-10T15:48:41.773Z,1.20
2018-02-10T15:51:09.322Z,1.20
2018-02-10T15:53:37.648Z,1.20
2018-02-10T15:56:13.377Z,1.10
2018-02-10T15:58:40.933Z,1.10
2018-02-10T16:01:10.406Z,1.10
2018-02-10T16:03:39.391Z,1.00
2018-02-10T16:06:06.917Z,1.00
2018-02-10T16:08:36.227Z,0.80
2018-02-10T16:11:03.749Z,0.80
2018-02-10T16:13:31.331Z,0.80
2018-02-10T16:15:59.618Z,0.70
2018-02-10T16:18:27.145Z,0.70
2018-02-10T16:20:55.477Z,0.60
2018-02-10T16:23:23.002Z,0.60
2018-02-10T16:25:50.596Z,0.60
2018-02-10T16:28:18.133Z,0.60
2018-02-10T16:30:45.685Z,0.60
2018-02-10T16:33:14.086Z,0.50
2018-02-10T16:35:41.634Z,0.50
2018-02-10T16:38:09.166Z,0.50
2018-02-10T16:40:37.484Z,0.50
2018-02-10T16:43:05.038Z,0.50
2018-02-10T16:45:32.617Z,0.50
2018-02-10T16:48:00.128Z,0.50
2018-02-10T16:50:28.436Z,0.50
2018-02-10T16:52:55.966Z,0.50
2018-02-10T16:55:23.512Z,0.50
2018-02-10T16:57:51.794Z,0.50
2018-02-10T17:00:20.113Z,0.50
2018-02-10T17:02:47.963Z,0.40
2018-02-10T17:05:15.512Z,0.50
2018-02-10T17:07:43.047Z,0.50
2018-02-10T17:10:11.357Z,0.50
2018-02-10T17:12:42.009Z,0.40
2018-02-10T17:15:09.561Z,0.40
2018-02-10T17:17:37.097Z,0.40
2018-02-10T17:20:04.648Z,0.40
2018-02-10T17:22:32.168Z,0.40
2018-02-10T17:24:59.720Z,0.40
2018-02-10T17:27:27.241Z,0.40
2018-02-10T17:29:54.860Z,0.40
2018-02-10T17:32:23.173Z,0.40
2018-02-10T17:34:50.711Z,0.40
2018-02-10T17:37:18.270Z,0.40
2018-02-10T17:39:45.797Z,0.40
2018-02-10T17:42:13.349Z,0.40
2018-02-10T17:44:40.881Z,0.40
2018-02-10T17:47:08.424Z,0.30
2018-02-10T17:49:35.942Z,0.30
2018-02-10T17:52:04.270Z,0.30
2018-02-10T17:54:31.799Z,0.30
2018-02-10T17:56:59.352Z,0.30
2018-02-10T17:59:26.878Z,0.30
2018-02-10T18:01:55.229Z,0.40
2018-02-10T18:04:22.758Z,0.30
2018-02-10T18:06:50.311Z,0.40
2018-02-10T18:09:17.837Z,0.40
2018-02-10T18:11:45.400Z,0.40
2018-02-10T18:14:12.936Z,0.30
2018-02-10T18:16:40.705Z,0.30
2018-02-10T18:19:09.041Z,0.30
2018-02-10T18:21:36.577Z,0.30
2018-02-10T18:24:04.128Z,0.30
2018-02-10T18:26:32.425Z,0.30
2018-02-10T18:29:00.745Z,0.30
2018-02-10T18:31:28.269Z,0.20
2018-02-10T18:33:55.835Z,0.20
2018-02-10T18:36:23.369Z,0.20
2018-02-10T18:38:50.920Z,0.20
2018-02-10T18:41:18.457Z,0.20
2018-02-10T18:43:46.786Z,0.20
2018-02-10T18:46:14.325Z,0.10
2018-02-10T18:48:41.909Z,0.10
2018-02-10T18:51:09.467Z,0.10
2018-02-10T18:53:37.013Z,0.10
2018-02-10T18:56:07.579Z,0.10
2018-02-10T18:58:35.930Z,0.10
2018-02-10T19:01:03.452Z,0.00
2018-02-10T19:03:31.009Z,0.00
2018-02-10T19:05:59.323Z,0.00
2018-02-10T19:08:26.868Z,0.00
2018-02-10T19:10:54.380Z,0.00
2018-02-10T19:13:22.700Z,0.00
2018-02-10T19:15:50.229Z,0.00
2018-02-10T19:18:18.536Z,0.00
2018-02-10T19:20:46.077Z,0.00
2018-02-10T19:23:13.605Z,0.00
2018-02-10T19:25:41.145Z,0.00
2018-02-10T19:28:08.669Z,0.00
2018-02-10T19:30:36.214Z,0.00
2018-02-10T19:33:03.741Z,0.00
2018-02-10T19:35:31.305Z,0.00
2018-02-10T19:37:59.590Z,0.00
2018-02-10T19:40:27.902Z,0.00
2018-02-10T19:42:55.425Z,0.00
2018-02-10T19:45:23.727Z,0.00
2018-02-10T19:47:51.253Z,0.00
2018-02-10T19:50:19.569Z,0.00
2018-02-10T19:52:47.085Z,0.00
2018-02-10T19:55:15.413Z,0.00
2018-02-10T19:57:42.948Z,-0.10
2018-02-10T20:00:10.508Z,0.00
2018-02-10T20:02:38.058Z,0.00
2018-02-10T20:05:05.634Z,-0.10
2018-02-10T20:07:33.156Z,-0.10
2018-02-10T20:10:01.494Z,-0.10
2018-02-10T20:12:29.037Z,-0.10
2018-02-10T20:14:56.589Z,-0.10
2018-02-10T20:17:24.152Z,-0.10
2018-02-10T20:19:51.684Z,-0.10
2018-02-10T20:22:19.294Z,-0.10
2018-02-10T20:24:46.826Z,-0.20
2018-02-10T20:27:14.418Z,-0.20
2018-02-10T20:29:41.990Z,-0.20
2018-02-10T20:32:10.327Z,-0.20
2018-02-10T20:34:37.891Z,-0.20
2018-02-10T20:37:05.453Z,-0.20
2018-02-10T20:39:33.013Z,-0.20
2018-02-10T20:42:00.568Z,-0.30
2018-02-10T20:44:28.112Z,-0.30
2018-02-10T20:46:55.694Z,-0.30
2018-02-10T20:49:23.230Z,-0.30
2018-02-10T20:51:50.811Z,-0.30
2018-02-10T20:54:18.347Z,-0.30
2018-02-10T20:56:45.898Z,-0.30
2018-02-10T20:59:13.437Z,-0.30
2018-02-10T21:01:41.020Z,-0.20
2018-02-10T21:04:08.585Z,-0.20
2018-02-10T21:06:36.141Z,-0.20
2018-02-10T21:09:03.681Z,-0.20
2018-02-10T21:11:31.282Z,-0.20
2018-02-10T21:13:58.830Z,-0.10
2018-02-10T21:16:26.372Z,-0.10
2018-02-10T21:18:53.938Z,-0.10
2018-02-10T21:21:21.486Z,-0.10
2018-02-10T21:23:49.036Z,-0.20
2018-02-10T21:26:16.560Z,-0.10
2018-02-10T21:28:44.893Z,-0.10
2018-02-10T21:31:12.435Z,-0.10
2018-02-10T21:33:39.981Z,-0.10
2018-02-10T21:36:07.524Z,-0.10
2018-02-10T21:38:35.837Z,-0.10
2018-02-10T21:41:03.365Z,-0.10
2018-02-10T21:43:30.969Z,-0.10
2018-02-10T21:45:58.500Z,-0.10
2018-02-10T21:48:26.840Z,-0.10
2018-02-10T21:50:55.152Z,-0.10
2018-02-10T21:53:22.697Z,-0.10
2018-02-10T21:55:50.249Z,-0.10
2018-02-10T21:58:18.590Z,0.00
2018-02-10T22:00:46.121Z,0.00
2018-02-10T22:03:13.667Z,0.00
2018-02-10T22:05:41.193Z,0.10
2018-02-10T22:08:09.505Z,0.10
2018-02-10T22:10:37.029Z,0.10
2018-02-10T22:13:05.356Z,0.10
2018-02-10T22:15:32.888Z,0.10
2018-02-10T22:18:00.437Z,0.10
2018-02-10T22:20:27.973Z,0.10
2018-02-10T22:22:56.338Z,0.10
2018-02-10T22:25:23.824Z,0.10
2018-02-10T22:27:51.377Z,0.10
2018-02-10T22:30:19.678Z,0.10
2018-02-10T22:32:47.216Z,0.10
2018-02-10T22:35:14.744Z,0.10
2018-02-10T22:37:42.298Z,0.10
2018-02-10T22:40:09.825Z,0.20
2018-02-10T22:42:37.361Z,0.20
2018-02-10T22:45:04.876Z,0.20
2018-02-10T22:47:32.438Z,0.20
2018-02-10T22:49:59.966Z,0.20
2018-02-10T22:52:27.527Z,0.20
2018-02-10T22:54:55.056Z,0.20
2018-02-10T22:57:22.700Z,0.20
2018-02-10T22:59:50.266Z,0.20
2018-02-10T23:02:17.855Z,0.20
2018-02-10T23:04:45.459Z,0.20
2018-02-10T23:07:13.798Z,0.20
2018-02-10T23:09:41.343Z,0.20
2018-02-10T23:12:08.930Z,0.30
2018-02-10T23:14:36.498Z,0.20
2018-02-10T23:17:04.121Z,0.10
2018-02-10T23:19:31.762Z,0.10
2018-02-10T23:21:59.354Z,0.10
2018-02-10T23:24:26.919Z,0.10
2018-02-10T23:26:54.509Z,0.10
2018-02-10T23:29:22.825Z,0.10
2018-02-10T23:31:50.393Z,0.10
2018-02-10T23:34:17.937Z,0.10
2018-02-10T23:36:45.525Z,0.10
2018-02-10T23:39:13.079Z,0.10
2018-02-10T23:41:40.631Z,0.10
2018-02-10T23:44:08.214Z,0.10
2018-02-10T23:46:35.833Z,0.10
2018-02-10T23:49:03.399Z,0.10
2018-02-10T23:51:31.009Z,0.10
2018-02-10T23:53:59.333Z,0.10
2018-02-10T23:56:26.907Z,0.00
2018-02-10T23:58:54.478Z,0.10
